sensor_id;sensor_type;location;lat;lon;timestamp;pressure;altitude;pressure_sealevel;temperature;humidity
47712;BME280;57457;51.634;5.886;2023-05-25T01:15:51;102300;;;8.5;86.2
47712;BME280;57457;51.634;5.886;2023-05-25T01:51:12;102300;;;8.6;86.1
47712;BME280;57457;51.634;5.886;2023-05-25T02:19:59;102300;;;8.5;85.7
47712;BME280;57457;51.634;5.886;2023-05-25T02:48:33;102300;;;8.2;86.1
47712;BME280;57457;51.634;5.886;2023-05-25T03:30:01;102300;;;7.9;86.8
47712;BME280;57457;51.634;5.886;2023-05-25T04:24:49;102400;;;7.4;87.2
47712;BME280;57457;51.634;5.886;2023-05-25T05:19:10;102400;;;9.1;86.9
47712;BME280;57457;51.634;5.886;2023-05-25T06:09:01;102400;;;11.5;84.2
47712;BME280;57457;51.634;5.886;2023-05-25T06:42:49;102400;;;11.6;82.3
47712;BME280;57457;51.634;5.886;2023-05-25T07:11:07;102500;;;12.2;80.1
47712;BME280;57457;51.634;5.886;2023-05-25T07:41:31;102500;;;12.9;78.1
47712;BME280;57457;51.634;5.886;2023-05-25T08:07:29;102500;;;13.5;74.9
47712;BME280;57457;51.634;5.886;2023-05-25T08:28:42;102500;;;14.3;72.0
47712;BME280;57457;51.634;5.886;2023-05-25T08:43:03;102500;;;15.3;69.3
47712;BME280;57457;51.634;5.886;2023-05-25T08:59:34;102500;;;16.2;70.7
47712;BME280;57457;51.634;5.886;2023-05-25T09:19:46;102500;;;16.3;70.1
47712;BME280;57457;51.634;5.886;2023-05-25T09:41:52;102500;;;16.4;71.4
47712;BME280;57457;51.634;5.886;2023-05-25T10:03:52;102500;;;16.3;70.7
47712;BME280;57457;51.634;5.886;2023-05-25T10:23:44;102600;;;16.3;69.2
47712;BME280;57457;51.634;5.886;2023-05-25T10:39:53;102600;;;16.7;69.4
47712;BME280;57457;51.634;5.886;2023-05-25T10:54:21;102600;;;16.7;71.3
47712;BME280;57457;51.634;5.886;2023-05-25T11:10:45;102600;;;17.1;64.8
47712;BME280;57457;51.634;5.886;2023-05-25T11:27:08;102600;;;17.7;59.5
47712;BME280;57457;51.634;5.886;2023-05-25T11:46:23;102500;;;18.2;56.9
47712;BME280;57457;51.634;5.886;2023-05-25T12:06:05;102500;;;19.6;58.8
47712;BME280;57457;51.634;5.886;2023-05-25T12:23:31;102500;;;19.5;61.6
47712;BME280;57457;51.634;5.886;2023-05-25T12:39:54;102500;;;19.0;62.1
47712;BME280;57457;51.634;5.886;2023-05-25T12:54:41;102500;;;18.6;61.0
47712;BME280;57457;51.634;5.886;2023-05-25T13:10:42;102500;;;18.4;61.3
47712;BME280;57457;51.634;5.886;2023-05-25T13:25:42;102500;;;18.4;59.5
47712;BME280;57457;51.634;5.886;2023-05-25T13:44:49;102500;;;18.7;58.3
47712;BME280;57457;51.634;5.886;2023-05-25T14:10:59;102500;;;18.8;54.4
47712;BME280;57457;51.634;5.886;2023-05-25T14:35:47;102500;;;19.6;52.1
47712;BME280;57457;51.634;5.886;2023-05-25T15:14:20;102400;;;20.7;52.5
47712;BME280;57457;51.634;5.886;2023-05-25T15:39:31;102400;;;20.8;50.5
47712;BME280;57457;51.634;5.886;2023-05-25T16:03:15;102400;;;21.5;50.5
47712;BME280;57457;51.634;5.886;2023-05-25T16:28:03;102400;;;21.8;51.6
47712;BME280;57457;51.634;5.886;2023-05-25T16:56:31;102400;;;21.4;52.0
47712;BME280;57457;51.634;5.886;2023-05-25T17:19:17;102400;;;21.4;58.5
47712;BME280;57457;51.634;5.886;2023-05-25T17:37:41;102400;;;20.5;57.6
47712;BME280;57457;51.634;5.886;2023-05-25T18:09:27;102400;;;19.7;58.4
47712;BME280;57457;51.634;5.886;2023-05-25T18:48:31;102400;;;19.0;60.5
47712;BME280;57457;51.634;5.886;2023-05-25T19:12:05;102400;;;18.2;63.4
47712;BME280;57457;51.634;5.886;2023-05-25T19:27:29;102400;;;17.4;64.0
47712;BME280;57457;51.634;5.886;2023-05-25T19:54:16;102400;;;16.7;66.8
47712;BME280;57457;51.634;5.886;2023-05-25T20:47:25;102500;;;15.3;71.5
47712;BME280;57457;51.634;5.886;2023-05-25T21:18:16;102500;;;14.6;73.0
47712;BME280;57457;51.634;5.886;2023-05-25T22:19:15;102500;;;13.3;77.3
47712;BME280;57457;51.634;5.886;2023-05-25T22:45:47;102600;;;12.6;79.0
47712;BME280;57457;51.634;5.886;2023-05-25T23:27:18;102600;;;12.0;80.2
